ADDS TAF Data INFO
IDs: Format: Raw Decoded Include METARs

Data at: 0923 UTC 13 Dec 2017

KTPA 130856Z 1309/1412 36004KT P6SM SKC
  FM131800 28007KT P6SM FEW250
  FM140100 24003KT P6SM FEW250